sensor_id;sensor_type;location;lat;lon;timestamp;temperature;humidity
18797;DHT22;9526;52.612;13.300;2024-01-15T00:01:25;2.60;99.90
18797;DHT22;9526;52.612;13.300;2024-01-15T00:03:49;2.60;99.90
18797;DHT22;9526;52.612;13.300;2024-01-15T00:06:13;2.60;99.90
18797;DHT22;9526;52.612;13.300;2024-01-15T00:08:37;2.60;99.90
18797;DHT22;9526;52.612;13.300;2024-01-15T00:11:00;2.60;99.90
18797;DHT22;9526;52.612;13.300;2024-01-15T00:13:25;2.50;99.90
18797;DHT22;9526;52.612;13.300;2024-01-15T00:15:49;2.50;99.90
18797;DHT22;9526;52.612;13.300;2024-01-15T00:18:12;2.50;99.90
18797;DHT22;9526;52.612;13.300;2024-01-15T00:20:36;2.50;99.90
18797;DHT22;9526;52.612;13.300;2024-01-15T00:23:00;2.50;99.90
18797;DHT22;9526;52.612;13.300;2024-01-15T00:25:24;2.40;99.90
18797;DHT22;9526;52.612;13.300;2024-01-15T00:27:49;2.40;99.90
18797;DHT22;9526;52.612;13.300;2024-01-15T00:30:14;2.40;99.90
18797;DHT22;9526;52.612;13.300;2024-01-15T00:32:38;2.40;99.90
18797;DHT22;9526;52.612;13.300;2024-01-15T00:35:02;2.40;99.90
18797;DHT22;9526;52.612;13.300;2024-01-15T00:37:27;2.50;99.90
18797;DHT22;9526;52.612;13.300;2024-01-15T00:39:50;2.50;99.90
18797;DHT22;9526;52.612;13.300;2024-01-15T00:42:14;2.50;99.90
18797;DHT22;9526;52.612;13.300;2024-01-15T00:44:38;2.50;99.90
18797;DHT22;9526;52.612;13.300;2024-01-15T00:47:04;2.50;99.90
18797;DHT22;9526;52.612;13.300;2024-01-15T00:49:28;2.50;99.90
18797;DHT22;9526;52.612;13.300;2024-01-15T00:51:51;2.50;99.90
18797;DHT22;9526;52.612;13.300;2024-01-15T00:54:15;2.50;99.90
18797;DHT22;9526;52.612;13.300;2024-01-15T00:56:39;2.50;99.90
18797;DHT22;9526;52.612;13.300;2024-01-15T00:59:03;2.50;99.90
18797;DHT22;9526;52.612;13.300;2024-01-15T01:01:27;2.50;99.90
18797;DHT22;9526;52.612;13.300;2024-01-15T01:03:52;2.50;99.90
18797;DHT22;9526;52.612;13.300;2024-01-15T01:06:16;2.40;99.90
18797;DHT22;9526;52.612;13.300;2024-01-15T01:08:40;2.40;99.90
18797;DHT22;9526;52.612;13.300;2024-01-15T01:11:03;2.40;99.90
18797;DHT22;9526;52.612;13.300;2024-01-15T01:13:28;2.40;99.90
18797;DHT22;9526;52.612;13.300;2024-01-15T01:15:52;2.30;99.90
18797;DHT22;9526;52.612;13.300;2024-01-15T01:18:16;2.30;99.90
18797;DHT22;9526;52.612;13.300;2024-01-15T01:20:41;2.30;99.90
18797;DHT22;9526;52.612;13.300;2024-01-15T01:23:05;2.20;99.90
18797;DHT22;9526;52.612;13.300;2024-01-15T01:25:29;2.20;99.90
18797;DHT22;9526;52.612;13.300;2024-01-15T01:27:53;2.20;99.90
18797;DHT22;9526;52.612;13.300;2024-01-15T01:30:16;2.20;99.90
18797;DHT22;9526;52.612;13.300;2024-01-15T01:32:40;2.20;99.90
18797;DHT22;9526;52.612;13.300;2024-01-15T01:35:04;2.20;99.90
18797;DHT22;9526;52.612;13.300;2024-01-15T01:37:30;2.20;99.90
18797;DHT22;9526;52.612;13.300;2024-01-15T01:39:54;2.20;99.90
18797;DHT22;9526;52.612;13.300;2024-01-15T01:42:17;2.30;99.90
18797;DHT22;9526;52.612;13.300;2024-01-15T01:44:41;2.20;99.90
18797;DHT22;9526;52.612;13.300;2024-01-15T01:47:05;2.20;99.90
18797;DHT22;9526;52.612;13.300;2024-01-15T01:49:29;2.20;99.90
18797;DHT22;9526;52.612;13.300;2024-01-15T01:51:55;2.20;99.90
18797;DHT22;9526;52.612;13.300;2024-01-15T01:54:22;2.20;99.90
18797;DHT22;9526;52.612;13.300;2024-01-15T01:56:47;2.20;99.90
18797;DHT22;9526;52.612;13.300;2024-01-15T01:59:11;2.20;99.90
18797;DHT22;9526;52.612;13.300;2024-01-15T02:01:36;2.20;99.90
18797;DHT22;9526;52.612;13.300;2024-01-15T02:04:00;2.20;99.90
18797;DHT22;9526;52.612;13.300;2024-01-15T02:06:25;2.20;99.90
18797;DHT22;9526;52.612;13.300;2024-01-15T02:08:49;2.20;99.90
18797;DHT22;9526;52.612;13.300;2024-01-15T02:11:15;2.20;99.90
18797;DHT22;9526;52.612;13.300;2024-01-15T02:13:39;2.20;99.90
18797;DHT22;9526;52.612;13.300;2024-01-15T02:16:03;2.20;99.90
18797;DHT22;9526;52.612;13.300;2024-01-15T02:18:27;2.20;99.90
18797;DHT22;9526;52.612;13.300;2024-01-15T02:20:51;2.10;99.90
18797;DHT22;9526;52.612;13.300;2024-01-15T02:23:16;2.20;99.90
18797;DHT22;9526;52.612;13.300;2024-01-15T02:25:41;2.20;99.90
18797;DHT22;9526;52.612;13.300;2024-01-15T02:28:08;2.20;99.90
18797;DHT22;9526;52.612;13.300;2024-01-15T02:30:34;2.20;99.90
18797;DHT22;9526;52.612;13.300;2024-01-15T02:33:01;2.10;99.90
18797;DHT22;9526;52.612;13.300;2024-01-15T02:35:25;2.10;99.90
18797;DHT22;9526;52.612;13.300;2024-01-15T02:37:48;2.10;99.90
18797;DHT22;9526;52.612;13.300;2024-01-15T02:40:13;2.10;99.90
18797;DHT22;9526;52.612;13.300;2024-01-15T02:42:37;2.00;99.90
18797;DHT22;9526;52.612;13.300;2024-01-15T02:45:01;2.00;99.90
18797;DHT22;9526;52.612;13.300;2024-01-15T02:47:26;2.00;99.90
18797;DHT22;9526;52.612;13.300;2024-01-15T02:49:50;2.00;99.90
18797;DHT22;9526;52.612;13.300;2024-01-15T02:52:14;2.00;99.90
18797;DHT22;9526;52.612;13.300;2024-01-15T02:54:38;2.10;99.90
18797;DHT22;9526;52.612;13.300;2024-01-15T02:57:04;2.10;99.90
18797;DHT22;9526;52.612;13.300;2024-01-15T02:59:28;2.10;99.90
18797;DHT22;9526;52.612;13.300;2024-01-15T03:01:51;2.10;99.90
18797;DHT22;9526;52.612;13.300;2024-01-15T03:04:15;2.10;99.90
18797;DHT22;9526;52.612;13.300;2024-01-15T03:06:39;2.10;99.90
18797;DHT22;9526;52.612;13.300;2024-01-15T03:09:03;2.10;99.90
18797;DHT22;9526;52.612;13.300;2024-01-15T03:11:27;2.20;99.90
18797;DHT22;9526;52.612;13.300;2024-01-15T03:13:53;2.20;99.90
18797;DHT22;9526;52.612;13.300;2024-01-15T03:16:16;2.20;99.90
18797;DHT22;9526;52.612;13.300;2024-01-15T03:18:42;2.20;99.90
18797;DHT22;9526;52.612;13.300;2024-01-15T03:21:06;2.20;99.90
18797;DHT22;9526;52.612;13.300;2024-01-15T03:23:30;2.20;99.90
18797;DHT22;9526;52.612;13.300;2024-01-15T03:25:53;2.20;99.90
18797;DHT22;9526;52.612;13.300;2024-01-15T03:28:17;2.20;99.90
18797;DHT22;9526;52.612;13.300;2024-01-15T03:30:42;2.20;99.90
18797;DHT22;9526;52.612;13.300;2024-01-15T03:33:06;2.20;99.90
18797;DHT22;9526;52.612;13.300;2024-01-15T03:35:30;2.20;99.90
18797;DHT22;9526;52.612;13.300;2024-01-15T03:37:54;2.20;99.90
18797;DHT22;9526;52.612;13.300;2024-01-15T03:40:18;2.20;99.90
18797;DHT22;9526;52.612;13.300;2024-01-15T03:42:44;2.20;99.90
18797;DHT22;9526;52.612;13.300;2024-01-15T03:45:08;2.20;99.90
18797;DHT22;9526;52.612;13.300;2024-01-15T03:47:34;2.20;99.90
18797;DHT22;9526;52.612;13.300;2024-01-15T03:49:57;2.20;99.90
18797;DHT22;9526;52.612;13.300;2024-01-15T03:52:21;2.20;99.90
18797;DHT22;9526;52.612;13.300;2024-01-15T03:54:45;2.20;99.90
18797;DHT22;9526;52.612;13.300;2024-01-15T03:57:09;2.30;99.90
18797;DHT22;9526;52.612;13.300;2024-01-15T03:59:33;2.20;99.90
18797;DHT22;9526;52.612;13.300;2024-01-15T04:01:56;2.30;99.90
18797;DHT22;9526;52.612;13.300;2024-01-15T04:04:21;2.30;99.90
18797;DHT22;9526;52.612;13.300;2024-01-15T04:06:46;2.30;99.90
18797;DHT22;9526;52.612;13.300;2024-01-15T04:09:09;2.30;99.90
18797;DHT22;9526;52.612;13.300;2024-01-15T04:11:34;2.30;99.90
18797;DHT22;9526;52.612;13.300;2024-01-15T04:13:58;2.30;99.90
18797;DHT22;9526;52.612;13.300;2024-01-15T04:16:22;2.30;99.90
18797;DHT22;9526;52.612;13.300;2024-01-15T04:18:46;2.30;99.90
18797;DHT22;9526;52.612;13.300;2024-01-15T04:21:11;2.30;99.90
18797;DHT22;9526;52.612;13.300;2024-01-15T04:23:35;2.30;99.90
18797;DHT22;9526;52.612;13.300;2024-01-15T04:25:59;2.30;99.90
18797;DHT22;9526;52.612;13.300;2024-01-15T04:28:22;2.30;99.90
18797;DHT22;9526;52.612;13.300;2024-01-15T04:30:46;2.40;99.90
18797;DHT22;9526;52.612;13.300;2024-01-15T04:33:10;2.40;99.90
18797;DHT22;9526;52.612;13.300;2024-01-15T04:35:34;2.40;99.90
18797;DHT22;9526;52.612;13.300;2024-01-15T04:37:59;2.40;99.90
18797;DHT22;9526;52.612;13.300;2024-01-15T04:40:23;2.40;99.90
18797;DHT22;9526;52.612;13.300;2024-01-15T04:42:49;2.40;99.90
18797;DHT22;9526;52.612;13.300;2024-01-15T04:45:13;2.40;99.90
18797;DHT22;9526;52.612;13.300;2024-01-15T04:47:37;2.40;99.90
18797;DHT22;9526;52.612;13.300;2024-01-15T04:50:01;2.40;99.90
18797;DHT22;9526;52.612;13.300;2024-01-15T04:52:25;2.40;99.90
18797;DHT22;9526;52.612;13.300;2024-01-15T04:54:50;2.50;99.90
18797;DHT22;9526;52.612;13.300;2024-01-15T04:57:14;2.50;99.90
18797;DHT22;9526;52.612;13.300;2024-01-15T04:59:38;2.50;99.90
18797;DHT22;9526;52.612;13.300;2024-01-15T05:02:02;2.30;99.90
18797;DHT22;9526;52.612;13.300;2024-01-15T05:04:26;2.50;99.90
18797;DHT22;9526;52.612;13.300;2024-01-15T05:06:50;2.50;99.90
18797;DHT22;9526;52.612;13.300;2024-01-15T05:09:14;2.50;99.90
18797;DHT22;9526;52.612;13.300;2024-01-15T05:11:39;2.40;99.90
18797;DHT22;9526;52.612;13.300;2024-01-15T05:14:03;2.50;99.90
18797;DHT22;9526;52.612;13.300;2024-01-15T05:16:27;2.50;99.90
18797;DHT22;9526;52.612;13.300;2024-01-15T05:18:50;2.50;99.90
18797;DHT22;9526;52.612;13.300;2024-01-15T05:21:14;2.50;99.90
18797;DHT22;9526;52.612;13.300;2024-01-15T05:23:38;2.50;99.90
18797;DHT22;9526;52.612;13.300;2024-01-15T05:26:02;2.40;99.90
18797;DHT22;9526;52.612;13.300;2024-01-15T05:28:27;2.40;99.90
18797;DHT22;9526;52.612;13.300;2024-01-15T05:30:51;2.40;99.90
18797;DHT22;9526;52.612;13.300;2024-01-15T05:33:16;2.40;99.90
18797;DHT22;9526;52.612;13.300;2024-01-15T05:35:40;2.40;99.90
18797;DHT22;9526;52.612;13.300;2024-01-15T05:38:04;2.50;99.90
18797;DHT22;9526;52.612;13.300;2024-01-15T05:40:28;2.50;99.90
18797;DHT22;9526;52.612;13.300;2024-01-15T05:42:52;2.50;99.90
18797;DHT22;9526;52.612;13.300;2024-01-15T05:45:17;2.50;99.90
18797;DHT22;9526;52.612;13.300;2024-01-15T05:47:41;2.50;99.90
18797;DHT22;9526;52.612;13.300;2024-01-15T05:50:06;2.50;99.90
18797;DHT22;9526;52.612;13.300;2024-01-15T05:52:31;2.50;99.90
18797;DHT22;9526;52.612;13.300;2024-01-15T05:54:55;2.60;99.90
18797;DHT22;9526;52.612;13.300;2024-01-15T05:57:19;2.60;99.90
18797;DHT22;9526;52.612;13.300;2024-01-15T05:59:44;2.60;99.90
18797;DHT22;9526;52.612;13.300;2024-01-15T06:02:09;2.60;99.90
18797;DHT22;9526;52.612;13.300;2024-01-15T06:04:34;2.50;99.90
18797;DHT22;9526;52.612;13.300;2024-01-15T06:06:57;2.60;99.90
18797;DHT22;9526;52.612;13.300;2024-01-15T06:09:21;2.50;99.90
18797;DHT22;9526;52.612;13.300;2024-01-15T06:11:45;2.50;99.90
18797;DHT22;9526;52.612;13.300;2024-01-15T06:14:09;2.50;99.90
18797;DHT22;9526;52.612;13.300;2024-01-15T06:16:32;2.60;99.90
18797;DHT22;9526;52.612;13.300;2024-01-15T06:18:58;2.60;99.90
18797;DHT22;9526;52.612;13.300;2024-01-15T06:21:23;2.60;99.90
18797;DHT22;9526;52.612;13.300;2024-01-15T06:23:47;2.60;99.90
18797;DHT22;9526;52.612;13.300;2024-01-15T06:26:12;2.60;99.90
18797;DHT22;9526;52.612;13.300;2024-01-15T06:28:36;2.60;99.90
18797;DHT22;9526;52.612;13.300;2024-01-15T06:30:59;2.60;99.90
18797;DHT22;9526;52.612;13.300;2024-01-15T06:33:23;2.70;99.90
18797;DHT22;9526;52.612;13.300;2024-01-15T06:35:49;2.70;99.90
18797;DHT22;9526;52.612;13.300;2024-01-15T06:38:13;2.70;99.90
18797;DHT22;9526;52.612;13.300;2024-01-15T06:40:37;2.70;99.90
18797;DHT22;9526;52.612;13.300;2024-01-15T06:43:03;2.60;99.90
18797;DHT22;9526;52.612;13.300;2024-01-15T06:45:27;2.60;99.90
18797;DHT22;9526;52.612;13.300;2024-01-15T06:47:51;2.60;99.90
18797;DHT22;9526;52.612;13.300;2024-01-15T06:50:15;2.60;99.90
18797;DHT22;9526;52.612;13.300;2024-01-15T06:52:40;2.60;99.90
18797;DHT22;9526;52.612;13.300;2024-01-15T06:55:04;2.60;99.90
18797;DHT22;9526;52.612;13.300;2024-01-15T06:57:29;2.60;99.90
18797;DHT22;9526;52.612;13.300;2024-01-15T06:59:52;2.60;99.90
18797;DHT22;9526;52.612;13.300;2024-01-15T07:02:16;2.60;99.90
18797;DHT22;9526;52.612;13.300;2024-01-15T07:04:40;2.70;99.90
18797;DHT22;9526;52.612;13.300;2024-01-15T07:07:05;2.60;99.90
18797;DHT22;9526;52.612;13.300;2024-01-15T07:09:30;2.60;99.90
18797;DHT22;9526;52.612;13.300;2024-01-15T07:11:53;2.60;99.90
18797;DHT22;9526;52.612;13.300;2024-01-15T07:14:19;2.60;99.90
18797;DHT22;9526;52.612;13.300;2024-01-15T07:16:42;2.60;99.90
18797;DHT22;9526;52.612;13.300;2024-01-15T07:19:10;2.60;99.90
18797;DHT22;9526;52.612;13.300;2024-01-15T07:21:33;2.60;99.90
18797;DHT22;9526;52.612;13.300;2024-01-15T07:23:57;2.60;99.90
18797;DHT22;9526;52.612;13.300;2024-01-15T07:26:22;2.60;99.90
18797;DHT22;9526;52.612;13.300;2024-01-15T07:28:47;2.60;99.90
18797;DHT22;9526;52.612;13.300;2024-01-15T07:31:11;2.50;99.90
18797;DHT22;9526;52.612;13.300;2024-01-15T07:33:35;2.50;99.90
18797;DHT22;9526;52.612;13.300;2024-01-15T07:35:59;2.50;99.90
18797;DHT22;9526;52.612;13.300;2024-01-15T07:38:25;2.50;99.90
18797;DHT22;9526;52.612;13.300;2024-01-15T07:40:48;2.60;99.90
18797;DHT22;9526;52.612;13.300;2024-01-15T07:43:13;2.60;99.90
18797;DHT22;9526;52.612;13.300;2024-01-15T07:45:37;2.60;99.90
18797;DHT22;9526;52.612;13.300;2024-01-15T07:48:05;2.60;99.90
18797;DHT22;9526;52.612;13.300;2024-01-15T07:50:30;2.60;99.90
18797;DHT22;9526;52.612;13.300;2024-01-15T07:52:54;2.70;99.90
18797;DHT22;9526;52.612;13.300;2024-01-15T07:55:17;2.70;99.90
18797;DHT22;9526;52.612;13.300;2024-01-15T07:57:41;2.70;99.90
18797;DHT22;9526;52.612;13.300;2024-01-15T08:00:13;2.70;99.90
18797;DHT22;9526;52.612;13.300;2024-01-15T08:02:38;2.70;99.90
18797;DHT22;9526;52.612;13.300;2024-01-15T08:05:02;2.70;99.90
18797;DHT22;9526;52.612;13.300;2024-01-15T08:07:26;2.70;99.90
18797;DHT22;9526;52.612;13.300;2024-01-15T08:09:49;2.70;99.90
18797;DHT22;9526;52.612;13.300;2024-01-15T08:12:13;2.70;99.90
18797;DHT22;9526;52.612;13.300;2024-01-15T08:14:37;2.70;99.90
18797;DHT22;9526;52.612;13.300;2024-01-15T08:17:02;2.70;99.90
18797;DHT22;9526;52.612;13.300;2024-01-15T08:19:26;2.70;99.90
18797;DHT22;9526;52.612;13.300;2024-01-15T08:21:50;2.70;99.90
18797;DHT22;9526;52.612;13.300;2024-01-15T08:24:15;2.80;99.90
18797;DHT22;9526;52.612;13.300;2024-01-15T08:26:39;2.80;99.90
18797;DHT22;9526;52.612;13.300;2024-01-15T08:29:03;2.80;99.90
18797;DHT22;9526;52.612;13.300;2024-01-15T08:31:27;2.80;99.90
18797;DHT22;9526;52.612;13.300;2024-01-15T08:33:52;2.80;99.90
18797;DHT22;9526;52.612;13.300;2024-01-15T08:36:16;2.80;99.90
18797;DHT22;9526;52.612;13.300;2024-01-15T08:38:40;2.80;99.90
18797;DHT22;9526;52.612;13.300;2024-01-15T08:41:04;2.80;99.90
18797;DHT22;9526;52.612;13.300;2024-01-15T08:43:27;2.90;99.90
18797;DHT22;9526;52.612;13.300;2024-01-15T08:45:53;2.80;99.90
18797;DHT22;9526;52.612;13.300;2024-01-15T08:48:17;2.90;99.90
18797;DHT22;9526;52.612;13.300;2024-01-15T08:50:42;2.90;99.90
18797;DHT22;9526;52.612;13.300;2024-01-15T08:53:08;2.90;99.90
18797;DHT22;9526;52.612;13.300;2024-01-15T08:55:31;2.90;99.90
18797;DHT22;9526;52.612;13.300;2024-01-15T08:57:55;2.90;99.90
18797;DHT22;9526;52.612;13.300;2024-01-15T09:00:19;2.90;99.90
18797;DHT22;9526;52.612;13.300;2024-01-15T09:02:43;2.90;99.90
18797;DHT22;9526;52.612;13.300;2024-01-15T09:05:08;2.90;99.90
18797;DHT22;9526;52.612;13.300;2024-01-15T09:07:33;2.90;99.90
18797;DHT22;9526;52.612;13.300;2024-01-15T09:09:56;2.90;99.90
18797;DHT22;9526;52.612;13.300;2024-01-15T09:12:21;2.90;99.90
18797;DHT22;9526;52.612;13.300;2024-01-15T09:14:45;2.90;99.90
18797;DHT22;9526;52.612;13.300;2024-01-15T09:17:09;2.90;99.90
18797;DHT22;9526;52.612;13.300;2024-01-15T09:19:32;2.90;99.90
18797;DHT22;9526;52.612;13.300;2024-01-15T09:21:56;2.90;99.90
18797;DHT22;9526;52.612;13.300;2024-01-15T09:24:22;2.90;99.90
18797;DHT22;9526;52.612;13.300;2024-01-15T09:26:49;2.90;99.90
18797;DHT22;9526;52.612;13.300;2024-01-15T09:29:13;3.00;99.90
18797;DHT22;9526;52.612;13.300;2024-01-15T09:31:39;3.00;99.90
18797;DHT22;9526;52.612;13.300;2024-01-15T09:34:04;3.00;99.90
18797;DHT22;9526;52.612;13.300;2024-01-15T09:36:28;3.10;99.90
18797;DHT22;9526;52.612;13.300;2024-01-15T09:38:52;3.10;99.90
18797;DHT22;9526;52.612;13.300;2024-01-15T09:41:17;3.10;99.90
18797;DHT22;9526;52.612;13.300;2024-01-15T09:43:41;3.10;99.90
18797;DHT22;9526;52.612;13.300;2024-01-15T09:46:06;3.20;99.90
18797;DHT22;9526;52.612;13.300;2024-01-15T09:48:30;3.20;99.90
18797;DHT22;9526;52.612;13.300;2024-01-15T09:50:57;3.20;99.90
18797;DHT22;9526;52.612;13.300;2024-01-15T09:53:22;3.30;99.90
18797;DHT22;9526;52.612;13.300;2024-01-15T09:55:46;3.30;99.90
18797;DHT22;9526;52.612;13.300;2024-01-15T09:58:12;3.30;99.90
18797;DHT22;9526;52.612;13.300;2024-01-15T10:00:37;3.40;99.90
18797;DHT22;9526;52.612;13.300;2024-01-15T10:03:04;3.40;99.90
18797;DHT22;9526;52.612;13.300;2024-01-15T10:05:28;3.40;99.90
18797;DHT22;9526;52.612;13.300;2024-01-15T10:07:53;3.40;99.90
18797;DHT22;9526;52.612;13.300;2024-01-15T10:10:18;3.40;99.90
18797;DHT22;9526;52.612;13.300;2024-01-15T10:12:44;3.50;99.90
18797;DHT22;9526;52.612;13.300;2024-01-15T10:15:11;3.40;99.90
18797;DHT22;9526;52.612;13.300;2024-01-15T10:17:36;3.50;99.90
18797;DHT22;9526;52.612;13.300;2024-01-15T10:20:00;3.50;99.90
18797;DHT22;9526;52.612;13.300;2024-01-15T10:22:26;3.50;99.90
18797;DHT22;9526;52.612;13.300;2024-01-15T10:24:51;3.50;99.90
18797;DHT22;9526;52.612;13.300;2024-01-15T10:27:15;3.50;99.90
18797;DHT22;9526;52.612;13.300;2024-01-15T10:29:41;3.50;99.90
18797;DHT22;9526;52.612;13.300;2024-01-15T10:32:08;3.60;99.90
18797;DHT22;9526;52.612;13.300;2024-01-15T10:34:32;3.50;99.90
18797;DHT22;9526;52.612;13.300;2024-01-15T10:36:56;3.50;99.90
18797;DHT22;9526;52.612;13.300;2024-01-15T10:39:20;3.50;99.90
18797;DHT22;9526;52.612;13.300;2024-01-15T10:41:43;3.50;99.90
18797;DHT22;9526;52.612;13.300;2024-01-15T10:44:07;3.50;99.90
18797;DHT22;9526;52.612;13.300;2024-01-15T10:46:32;3.50;99.90
18797;DHT22;9526;52.612;13.300;2024-01-15T10:48:58;3.50;99.90
18797;DHT22;9526;52.612;13.300;2024-01-15T10:51:23;3.50;99.90
18797;DHT22;9526;52.612;13.300;2024-01-15T10:53:48;3.60;99.90
18797;DHT22;9526;52.612;13.300;2024-01-15T10:56:13;3.60;99.90
18797;DHT22;9526;52.612;13.300;2024-01-15T10:58:39;3.50;99.90
18797;DHT22;9526;52.612;13.300;2024-01-15T11:01:04;3.60;99.90
18797;DHT22;9526;52.612;13.300;2024-01-15T11:03:28;3.60;99.90
18797;DHT22;9526;52.612;13.300;2024-01-15T11:05:54;3.70;99.90
18797;DHT22;9526;52.612;13.300;2024-01-15T11:08:17;3.70;99.90
18797;DHT22;9526;52.612;13.300;2024-01-15T11:10:43;3.70;99.90
18797;DHT22;9526;52.612;13.300;2024-01-15T11:13:10;3.70;99.90
18797;DHT22;9526;52.612;13.300;2024-01-15T11:16:00;3.80;99.90
18797;DHT22;9526;52.612;13.300;2024-01-15T11:18:27;3.80;99.90
18797;DHT22;9526;52.612;13.300;2024-01-15T11:21:21;3.80;99.90
18797;DHT22;9526;52.612;13.300;2024-01-15T11:23:49;3.80;99.90
18797;DHT22;9526;52.612;13.300;2024-01-15T11:26:35;3.70;99.90
18797;DHT22;9526;52.612;13.300;2024-01-15T11:29:01;3.70;99.90
18797;DHT22;9526;52.612;13.300;2024-01-15T11:31:27;3.70;99.90
18797;DHT22;9526;52.612;13.300;2024-01-15T11:33:52;3.70;99.90
18797;DHT22;9526;52.612;13.300;2024-01-15T11:36:17;3.70;99.90
18797;DHT22;9526;52.612;13.300;2024-01-15T11:38:42;3.70;99.90
18797;DHT22;9526;52.612;13.300;2024-01-15T11:41:13;3.60;99.90
18797;DHT22;9526;52.612;13.300;2024-01-15T11:43:38;3.60;99.90
18797;DHT22;9526;52.612;13.300;2024-01-15T11:46:02;3.50;99.90
18797;DHT22;9526;52.612;13.300;2024-01-15T11:48:36;3.50;99.90
18797;DHT22;9526;52.612;13.300;2024-01-15T11:51:08;3.40;99.90
18797;DHT22;9526;52.612;13.300;2024-01-15T11:53:40;3.40;99.90
18797;DHT22;9526;52.612;13.300;2024-01-15T11:56:14;3.30;99.90
18797;DHT22;9526;52.612;13.300;2024-01-15T11:58:40;3.20;99.90
18797;DHT22;9526;52.612;13.300;2024-01-15T12:01:04;3.20;99.90
18797;DHT22;9526;52.612;13.300;2024-01-15T12:03:28;3.20;99.90
18797;DHT22;9526;52.612;13.300;2024-01-15T12:05:52;3.20;99.90
18797;DHT22;9526;52.612;13.300;2024-01-15T12:08:21;3.20;99.90
18797;DHT22;9526;52.612;13.300;2024-01-15T12:10:47;3.20;99.90
18797;DHT22;9526;52.612;13.300;2024-01-15T12:13:12;3.10;99.90
18797;DHT22;9526;52.612;13.300;2024-01-15T12:15:37;3.10;99.90
18797;DHT22;9526;52.612;13.300;2024-01-15T12:18:03;3.10;99.90
18797;DHT22;9526;52.612;13.300;2024-01-15T12:20:28;3.10;99.90
18797;DHT22;9526;52.612;13.300;2024-01-15T12:22:53;3.10;99.90
18797;DHT22;9526;52.612;13.300;2024-01-15T12:25:25;3.10;99.90
18797;DHT22;9526;52.612;13.300;2024-01-15T12:27:51;3.10;99.90
18797;DHT22;9526;52.612;13.300;2024-01-15T12:30:15;3.00;99.90
18797;DHT22;9526;52.612;13.300;2024-01-15T12:32:40;3.00;99.90
18797;DHT22;9526;52.612;13.300;2024-01-15T12:35:05;3.00;99.90
18797;DHT22;9526;52.612;13.300;2024-01-15T12:37:29;3.00;99.90
18797;DHT22;9526;52.612;13.300;2024-01-15T12:39:53;3.00;99.90
18797;DHT22;9526;52.612;13.300;2024-01-15T12:42:18;2.90;99.90
18797;DHT22;9526;52.612;13.300;2024-01-15T12:44:43;2.90;99.90
18797;DHT22;9526;52.612;13.300;2024-01-15T12:47:08;2.90;99.90
18797;DHT22;9526;52.612;13.300;2024-01-15T12:49:31;2.90;99.90
18797;DHT22;9526;52.612;13.300;2024-01-15T12:51:57;2.90;99.90
18797;DHT22;9526;52.612;13.300;2024-01-15T12:54:22;2.90;99.90
18797;DHT22;9526;52.612;13.300;2024-01-15T12:56:46;2.90;99.90
18797;DHT22;9526;52.612;13.300;2024-01-15T12:59:10;2.90;99.90
18797;DHT22;9526;52.612;13.300;2024-01-15T13:01:35;2.90;99.90
18797;DHT22;9526;52.612;13.300;2024-01-15T13:04:00;2.90;99.90
18797;DHT22;9526;52.612;13.300;2024-01-15T13:06:24;2.90;99.90
18797;DHT22;9526;52.612;13.300;2024-01-15T13:08:48;3.00;99.90
18797;DHT22;9526;52.612;13.300;2024-01-15T13:11:11;3.00;99.90
18797;DHT22;9526;52.612;13.300;2024-01-15T13:13:35;2.90;99.90
18797;DHT22;9526;52.612;13.300;2024-01-15T13:15:59;2.90;99.90
18797;DHT22;9526;52.612;13.300;2024-01-15T13:18:25;2.90;99.90
18797;DHT22;9526;52.612;13.300;2024-01-15T13:20:49;2.90;99.90
18797;DHT22;9526;52.612;13.300;2024-01-15T13:23:13;2.90;99.90
18797;DHT22;9526;52.612;13.300;2024-01-15T13:25:36;2.90;99.90
18797;DHT22;9526;52.612;13.300;2024-01-15T13:28:00;2.90;99.90
18797;DHT22;9526;52.612;13.300;2024-01-15T13:30:25;3.00;99.90
18797;DHT22;9526;52.612;13.300;2024-01-15T13:32:49;3.00;99.90
18797;DHT22;9526;52.612;13.300;2024-01-15T13:35:15;3.00;99.90
18797;DHT22;9526;52.612;13.300;2024-01-15T13:37:39;3.00;99.90
18797;DHT22;9526;52.612;13.300;2024-01-15T13:40:04;3.00;99.90
18797;DHT22;9526;52.612;13.300;2024-01-15T13:42:30;2.90;99.90
18797;DHT22;9526;52.612;13.300;2024-01-15T13:44:53;2.90;99.90
18797;DHT22;9526;52.612;13.300;2024-01-15T13:47:18;2.90;99.90
18797;DHT22;9526;52.612;13.300;2024-01-15T13:49:41;2.90;99.90
18797;DHT22;9526;52.612;13.300;2024-01-15T13:52:07;3.00;99.90
18797;DHT22;9526;52.612;13.300;2024-01-15T13:54:30;3.00;99.90
18797;DHT22;9526;52.612;13.300;2024-01-15T13:57:10;3.00;99.90
18797;DHT22;9526;52.612;13.300;2024-01-15T13:59:34;3.00;99.90
18797;DHT22;9526;52.612;13.300;2024-01-15T14:01:57;3.00;99.90
18797;DHT22;9526;52.612;13.300;2024-01-15T14:04:21;3.00;99.90
18797;DHT22;9526;52.612;13.300;2024-01-15T14:06:45;3.00;99.90
18797;DHT22;9526;52.612;13.300;2024-01-15T14:09:10;3.00;99.90
18797;DHT22;9526;52.612;13.300;2024-01-15T14:11:36;3.00;99.90
18797;DHT22;9526;52.612;13.300;2024-01-15T14:14:00;3.00;99.90
18797;DHT22;9526;52.612;13.300;2024-01-15T14:16:24;3.00;99.90
18797;DHT22;9526;52.612;13.300;2024-01-15T14:18:48;3.00;99.90
18797;DHT22;9526;52.612;13.300;2024-01-15T14:21:12;3.00;99.90
18797;DHT22;9526;52.612;13.300;2024-01-15T14:23:36;3.00;99.90
18797;DHT22;9526;52.612;13.300;2024-01-15T14:26:02;3.00;99.90
18797;DHT22;9526;52.612;13.300;2024-01-15T14:28:26;3.00;99.90
18797;DHT22;9526;52.612;13.300;2024-01-15T14:30:50;3.00;99.90
18797;DHT22;9526;52.612;13.300;2024-01-15T14:33:15;3.00;99.90
18797;DHT22;9526;52.612;13.300;2024-01-15T14:35:39;3.00;99.90
18797;DHT22;9526;52.612;13.300;2024-01-15T14:38:03;2.90;99.90
18797;DHT22;9526;52.612;13.300;2024-01-15T14:40:27;2.90;99.90
18797;DHT22;9526;52.612;13.300;2024-01-15T14:42:53;2.90;99.90
18797;DHT22;9526;52.612;13.300;2024-01-15T14:45:17;2.90;99.90
18797;DHT22;9526;52.612;13.300;2024-01-15T14:47:41;2.90;99.90
18797;DHT22;9526;52.612;13.300;2024-01-15T14:50:07;2.90;99.90
18797;DHT22;9526;52.612;13.300;2024-01-15T14:52:32;2.80;99.90
18797;DHT22;9526;52.612;13.300;2024-01-15T14:54:56;2.80;99.90
18797;DHT22;9526;52.612;13.300;2024-01-15T14:57:19;2.80;99.90
18797;DHT22;9526;52.612;13.300;2024-01-15T14:59:45;2.80;99.90
18797;DHT22;9526;52.612;13.300;2024-01-15T15:02:09;2.80;99.90
18797;DHT22;9526;52.612;13.300;2024-01-15T15:04:35;2.80;99.90
18797;DHT22;9526;52.612;13.300;2024-01-15T15:06:59;2.70;99.90
18797;DHT22;9526;52.612;13.300;2024-01-15T15:09:23;2.70;99.90
18797;DHT22;9526;52.612;13.300;2024-01-15T15:11:47;2.70;99.90
18797;DHT22;9526;52.612;13.300;2024-01-15T15:14:10;2.70;99.90
18797;DHT22;9526;52.612;13.300;2024-01-15T15:16:35;2.60;99.90
18797;DHT22;9526;52.612;13.300;2024-01-15T15:18:59;2.60;99.90
18797;DHT22;9526;52.612;13.300;2024-01-15T15:21:23;2.50;99.90
18797;DHT22;9526;52.612;13.300;2024-01-15T15:23:47;2.50;99.90
18797;DHT22;9526;52.612;13.300;2024-01-15T15:26:10;2.50;99.90
18797;DHT22;9526;52.612;13.300;2024-01-15T15:28:34;2.50;99.90